Time;durP1;ratioP1;P1;durP2;ratioP2;P2;SDS_P1;SDS_P2;PMS_P1;PMS_P2;Temp;Humidity;BMP_temperature;BMP_pressure;BME280_temperature;BME280_humidity;BME280_pressure;Samples;Min_cycle;Max_cycle;Signal;HPM_P1;HPM_P2
2023/01/29 00:00:08;;;;;;;19.87;13.77;;;;;;;41.71;36.46;100882.84;6082885;23;20416;-92
2023/01/29 00:02:35;;;;;;;18.37;14.37;;;;;;;41.70;36.96;100876.59;6075641;23;20422;-93
2023/01/29 00:05:03;;;;;;;19.70;13.50;;;;;;;41.72;36.90;100873.53;6072165;23;20421;-93
2023/01/29 00:07:29;;;;;;;19.80;13.50;;;;;;;41.81;37.11;100866.94;6087564;23;20394;-96
2023/01/29 00:09:56;;;;;;;24.60;15.57;;;;;;;41.79;36.85;100862.94;6089777;23;20462;-96
2023/01/29 00:12:22;;;;;;;27.10;14.47;;;;;;;41.70;37.30;100846.63;6090950;23;20411;-96
2023/01/29 00:14:48;;;;;;;20.30;14.97;;;;;;;41.78;37.03;100859.41;6072034;23;20383;-94
2023/01/29 00:17:14;;;;;;;17.57;13.53;;;;;;;41.79;36.75;100849.31;6071605;23;20415;-91
2023/01/29 00:19:40;;;;;;;24.57;15.47;;;;;;;41.74;36.94;100841.31;6071598;23;20438;-93
2023/01/29 00:22:06;;;;;;;20.77;13.60;;;;;;;41.78;36.74;100843.06;6072192;23;20750;-93
2023/01/29 00:24:32;;;;;;;25.13;13.07;;;;;;;41.70;37.11;100833.00;6072362;23;20877;-93
2023/01/29 00:26:58;;;;;;;22.30;14.40;;;;;;;41.67;37.17;100828.22;6072035;23;20792;-93
2023/01/29 00:29:24;;;;;;;20.43;15.57;;;;;;;41.82;36.75;100824.94;6072009;23;20442;-93
2023/01/29 00:31:50;;;;;;;18.83;16.20;;;;;;;41.79;36.59;100825.59;6072057;23;20386;-93
2023/01/29 00:34:16;;;;;;;20.17;15.33;;;;;;;41.70;36.60;100819.41;6087618;23;20724;-92
2023/01/29 00:36:44;;;;;;;20.33;12.30;;;;;;;41.78;36.70;100823.19;6131021;23;20385;-91
2023/01/29 00:39:10;;;;;;;16.90;13.47;;;;;;;41.74;36.83;100814.91;6130072;23;20424;-91
2023/01/29 00:49:50;;;;;;;20.40;13.40;;;;;;;41.62;36.63;100801.22;6156532;23;20365;-91
2023/01/29 00:52:25;;;;;;;13.87;11.90;;;;;;;41.57;36.53;100795.97;6130410;23;20389;-93
2023/01/29 00:54:56;;;;;;;28.70;14.27;;;;;;;41.62;36.50;100798.50;6129982;23;20452;-91
2023/01/29 00:57:23;;;;;;;26.93;14.03;;;;;;;41.55;36.67;100793.56;6130154;23;20735;-93
2023/01/29 00:59:49;;;;;;;22.17;13.67;;;;;;;41.60;36.20;100798.00;6130519;23;20393;-91
2023/01/29 01:05:04;;;;;;;16.80;13.77;;;;;;;41.63;36.12;100794.63;6156451;23;20705;-91
2023/01/29 01:07:31;;;;;;;21.43;13.67;;;;;;;41.64;36.00;100787.25;6130325;23;20829;-91
2023/01/29 01:12:41;;;;;;;21.10;14.83;;;;;;;41.69;35.95;100787.84;6156275;23;20705;-91
2023/01/29 01:15:08;;;;;;;21.77;15.27;;;;;;;41.71;36.21;100787.50;6155296;23;20400;-94
2023/01/29 01:17:35;;;;;;;23.33;13.90;;;;;;;41.66;36.07;100788.50;6129970;23;20393;-91
2023/01/29 01:20:01;;;;;;;18.03;14.27;;;;;;;41.72;36.25;100784.44;6130196;23;20385;-91
2023/01/29 01:22:27;;;;;;;23.40;12.90;;;;;;;41.73;35.82;100780.59;6129425;23;20451;-91
2023/01/29 01:24:53;;;;;;;21.93;13.13;;;;;;;41.72;35.58;100770.03;6130131;23;20392;-91
2023/01/29 01:27:19;;;;;;;20.33;14.10;;;;;;;41.65;35.63;100776.03;6129780;23;20441;-91
2023/01/29 01:29:45;;;;;;;20.10;13.30;;;;;;;41.69;35.60;100776.16;6156473;23;20853;-91
2023/01/29 01:32:12;;;;;;;17.90;13.43;;;;;;;41.83;35.37;100769.31;6129693;23;20392;-92
2023/01/29 01:34:38;;;;;;;17.63;11.80;;;;;;;41.79;35.83;100770.31;6130134;23;20396;-91
2023/01/29 01:37:04;;;;;;;19.23;13.70;;;;;;;41.68;35.71;100771.81;6154457;23;20385;-90
2023/01/29 01:39:30;;;;;;;22.10;13.70;;;;;;;41.71;35.84;100774.69;6129213;23;20452;-91
2023/01/29 01:41:56;;;;;;;20.40;13.60;;;;;;;41.78;35.76;100771.44;6129202;23;20857;-92
2023/01/29 01:44:58;;;;;;;15.40;12.50;;;;;;;41.79;35.71;100762.94;6129770;23;20913;-92
2023/01/29 01:47:45;;;;;;;19.00;13.47;;;;;;;41.67;36.34;100770.22;6129922;23;20377;-92
2023/01/29 01:50:41;;;;;;;20.70;12.70;;;;;;;41.58;36.86;100765.66;6154563;23;20385;-93
2023/01/29 01:53:11;;;;;;;23.70;14.83;;;;;;;41.54;37.27;100763.94;6129823;23;20393;-91
2023/01/29 01:55:44;;;;;;;19.97;12.30;;;;;;;41.44;37.17;100758.91;6129683;23;20393;-91
2023/01/29 01:58:15;;;;;;;19.87;13.40;;;;;;;41.55;37.06;100755.44;6129235;23;20467;-91
2023/01/29 02:00:41;;;;;;;28.20;14.27;;;;;;;41.51;37.07;100770.06;6129868;23;20444;-94
2023/01/29 02:11:50;;;;;;;18.53;11.50;;;;;;;41.41;37.26;100770.47;6155742;23;20455;-91
2023/01/29 02:14:16;;;;;;;16.80;11.70;;;;;;;41.43;37.05;100769.00;6153481;23;20416;-94
2023/01/29 02:16:42;;;;;;;20.77;14.40;;;;;;;41.52;36.91;100779.81;6130059;23;20413;-92
2023/01/29 02:19:48;;;;;;;19.10;15.03;;;;;;;41.55;37.05;100782.66;6128412;23;20454;-91
2023/01/29 02:22:35;;;;;;;14.87;12.77;;;;;;;41.39;37.37;100778.19;6113877;23;20396;-92
2023/01/29 02:25:35;;;;;;;21.10;11.93;;;;;;;41.50;36.84;100779.38;6129594;23;20389;-91
2023/01/29 02:28:15;;;;;;;28.57;13.10;;;;;;;41.30;37.18;100770.81;6128831;23;20476;-91
2023/01/29 02:31:01;;;;;;;16.10;12.00;;;;;;;41.38;37.02;100766.50;6129110;23;20428;-91
2023/01/29 02:33:42;;;;;;;16.50;12.23;;;;;;;41.48;36.83;100760.63;6129501;23;20873;-91
2023/01/29 02:44:08;;;;;;;15.10;13.33;;;;;;;41.40;36.77;100749.81;6130388;23;20457;-91
2023/01/29 02:47:00;;;;;;;29.50;13.57;;;;;;;41.49;36.62;100754.03;6099644;23;20389;-91
2023/01/29 02:49:43;;;;;;;20.60;11.33;;;;;;;41.61;36.68;100754.09;6100224;23;20927;-91
2023/01/29 02:52:17;;;;;;;19.17;11.90;;;;;;;41.69;36.49;100744.28;6099493;23;20949;-91
2023/01/29 02:54:55;;;;;;;13.80;11.03;;;;;;;41.54;36.55;100742.16;6126001;23;20372;-91
2023/01/29 02:57:27;;;;;;;24.87;12.60;;;;;;;41.49;36.74;100739.63;6099969;23;20390;-91
2023/01/29 03:00:02;;;;;;;21.37;11.17;;;;;;;41.41;37.12;100738.59;6100250;23;20398;-94
2023/01/29 03:02:36;;;;;;;13.90;11.03;;;;;;;41.49;37.33;100740.44;6099428;23;20417;-91
2023/01/29 03:05:09;;;;;;;20.70;11.90;;;;;;;41.53;36.94;100741.38;6098894;23;20398;-91
2023/01/29 03:07:41;;;;;;;20.10;10.47;;;;;;;41.40;37.17;100730.75;6099677;23;20886;-91
2023/01/29 03:10:38;;;;;;;14.20;10.30;;;;;;;41.45;36.76;100727.84;6099558;23;20485;-91
2023/01/29 03:13:24;;;;;;;13.20;8.63;;;;;;;41.12;36.89;100733.97;6099885;23;20701;-91
2023/01/29 03:16:00;;;;;;;17.93;8.23;;;;;;;41.33;36.55;100737.53;6098977;23;20476;-91
2023/01/29 03:18:35;;;;;;;15.73;9.30;;;;;;;41.41;36.83;100741.31;6099629;23;20445;-91
2023/01/29 03:21:49;;;;;;;16.93;9.50;;;;;;;41.25;36.68;100745.72;6099717;23;20385;-91
2023/01/29 03:32:18;;;;;;;13.50;8.60;;;;;;;41.39;36.12;100746.31;6125610;23;20437;-91
2023/01/29 03:34:50;;;;;;;13.30;9.00;;;;;;;41.51;35.88;100737.41;6099325;23;20413;-90
2023/01/29 03:37:34;;;;;;;19.40;9.87;;;;;;;41.38;36.00;100739.25;6099666;23;20468;-91
2023/01/29 03:40:05;;;;;;;15.13;8.43;;;;;;;41.20;36.40;100745.94;6099692;23;20406;-92
2023/01/29 03:42:43;;;;;;;14.50;9.63;;;;;;;41.17;36.75;100743.88;6100742;23;20436;-91
2023/01/29 03:45:43;;;;;;;15.13;8.33;;;;;;;41.34;35.97;100739.13;6128614;23;20383;-92
2023/01/29 03:48:35;;;;;;;14.37;8.17;;;;;;;41.38;35.93;100741.19;6156418;23;20373;-92
2023/01/29 03:51:34;;;;;;;16.13;9.40;;;;;;;41.39;36.12;100746.31;6154685;23;20377;-91
2023/01/29 03:54:06;;;;;;;17.90;10.07;;;;;;;41.53;35.47;100744.09;6153019;23;20389;-90
2023/01/29 03:56:53;;;;;;;15.73;8.77;;;;;;;41.29;36.33;100743.94;6128404;23;20417;-90
2023/01/29 03:59:45;;;;;;;22.13;9.57;;;;;;;41.27;35.90;100743.50;6128584;23;20429;-91
2023/01/29 04:02:26;;;;;;;15.57;9.27;;;;;;;41.43;36.05;100752.66;6099182;23;20423;-92
2023/01/29 04:08:57;;;;;;;13.10;8.50;;;;;;;41.40;35.57;100764.22;6156096;23;20353;-93
2023/01/29 04:11:26;;;;;;;18.43;8.27;;;;;;;41.36;36.00;100766.00;6153536;23;20772;-91
2023/01/29 04:17:28;;;;;;;17.00;9.50;;;;;;;41.22;35.87;100768.97;6155052;23;20372;-91
2023/01/29 04:19:54;;;;;;;17.13;7.50;;;;;;;41.31;35.67;100771.63;6128779;23;20399;-91
2023/01/29 04:23:17;;;;;;;12.93;8.40;;;;;;;41.33;35.19;100769.41;6128658;23;20385;-91
2023/01/29 04:25:48;;;;;;;13.07;8.40;;;;;;;41.26;35.31;100780.00;6128840;23;20421;-93
2023/01/29 04:28:33;;;;;;;12.70;8.27;;;;;;;41.31;35.47;100777.06;6128238;23;20388;-91
2023/01/29 04:31:09;;;;;;;18.43;8.43;;;;;;;41.32;35.21;100779.50;6129365;23;20393;-94
2023/01/29 04:34:03;;;;;;;13.50;8.03;;;;;;;41.42;35.13;100778.28;6131403;23;20857;-91
2023/01/29 04:36:51;;;;;;;14.20;8.30;;;;;;;41.42;35.40;100788.38;6128544;23;20389;-93
2023/01/29 04:39:57;;;;;;;19.00;9.47;;;;;;;41.40;34.99;100786.00;6156132;23;21062;-94
2023/01/29 04:43:05;;;;;;;16.47;7.67;;;;;;;41.24;34.77;100788.47;6155477;23;20432;-96
2023/01/29 04:45:41;;;;;;;16.00;7.30;;;;;;;41.25;35.18;100779.22;6132706;23;20385;-96
2023/01/29 04:48:17;;;;;;;13.70;8.10;;;;;;;41.31;34.65;100786.06;6131355;23;20388;-92
2023/01/29 04:51:35;;;;;;;14.37;7.80;;;;;;;41.43;34.78;100784.53;6131344;23;20397;-92
2023/01/29 05:04:20;;;;;;;15.80;8.73;;;;;;;41.28;34.57;100799.50;6142777;23;20484;-92
2023/01/29 05:06:47;;;;;;;11.50;6.67;;;;;;;41.20;34.58;100800.38;6129655;23;20464;-90
2023/01/29 05:09:16;;;;;;;21.63;7.70;;;;;;;41.32;34.87;100809.44;6130732;23;20381;-93
2023/01/29 05:11:45;;;;;;;11.80;7.00;;;;;;;41.09;35.35;100808.13;6130191;23;20412;-91
2023/01/29 05:14:16;;;;;;;11.00;7.10;;;;;;;41.22;35.61;100812.50;6130323;23;20381;-91
2023/01/29 05:16:45;;;;;;;10.07;7.20;;;;;;;41.40;35.35;100812.44;6129644;23;20385;-91
2023/01/29 05:19:13;;;;;;;17.60;9.00;;;;;;;41.40;35.08;100817.88;6130139;23;20452;-91
2023/01/29 05:22:12;;;;;;;12.63;6.93;;;;;;;41.38;35.24;100829.09;6134748;23;20389;-96
2023/01/29 05:24:45;;;;;;;15.13;7.60;;;;;;;41.37;35.55;100818.53;6131665;23;20385;-96
2023/01/29 05:30:18;;;;;;;15.20;7.90;;;;;;;41.45;35.26;100836.75;6156364;23;20353;-93
2023/01/29 05:32:44;;;;;;;17.83;8.10;;;;;;;41.46;35.80;100833.69;6130183;23;20387;-94
2023/01/29 05:35:10;;;;;;;12.60;8.60;;;;;;;41.39;35.88;100829.91;6129912;23;20413;-92
2023/01/29 05:37:36;;;;;;;17.57;6.93;;;;;;;41.39;35.94;100827.97;6130003;23;20181;-91
2023/01/29 05:40:02;;;;;;;16.23;6.67;;;;;;;41.41;36.20;100833.09;6129534;23;20385;-92
2023/01/29 05:42:28;;;;;;;15.53;6.83;;;;;;;41.28;36.53;100834.91;6129926;23;20386;-91
2023/01/29 05:44:54;;;;;;;13.20;6.50;;;;;;;41.39;35.83;100840.78;6129747;23;20392;-91
2023/01/29 05:47:20;;;;;;;17.40;8.30;;;;;;;41.40;35.80;100845.09;6125059;23;20386;-91
2023/01/29 05:49:46;;;;;;;18.70;6.67;;;;;;;41.40;35.27;100850.53;6124020;23;20157;-93
2023/01/29 05:52:12;;;;;;;18.47;7.00;;;;;;;41.44;35.76;100843.31;6130232;23;20736;-91
2023/01/29 05:54:38;;;;;;;10.83;6.77;;;;;;;41.45;35.59;100847.63;6129750;23;20393;-91
2023/01/29 05:57:04;;;;;;;18.10;7.53;;;;;;;41.45;35.82;100859.31;6130325;23;20432;-91
2023/01/29 05:59:30;;;;;;;17.17;7.70;;;;;;;41.37;35.83;100857.44;6129277;23;20420;-91
2023/01/29 06:01:57;;;;;;;11.60;7.00;;;;;;;41.33;36.02;100859.25;6125579;23;20402;-94
2023/01/29 06:04:23;;;;;;;18.27;8.90;;;;;;;41.49;35.84;100867.59;6100289;23;20930;-91
2023/01/29 06:06:49;;;;;;;14.80;8.50;;;;;;;41.40;35.92;100866.88;6095693;23;20391;-92
2023/01/29 06:09:15;;;;;;;16.70;8.17;;;;;;;41.43;35.48;100874.38;6113147;23;20398;-91
2023/01/29 06:11:44;;;;;;;16.57;6.97;;;;;;;41.52;35.65;100884.09;6125023;23;20382;-92
2023/01/29 06:14:10;;;;;;;18.77;6.80;;;;;;;41.34;36.38;100877.97;6108933;23;20234;-91
2023/01/29 06:16:36;;;;;;;15.83;6.37;;;;;;;41.39;36.10;100881.63;6095127;23;20391;-91
2023/01/29 06:19:02;;;;;;;16.87;7.80;;;;;;;41.41;36.11;100898.41;6093289;23;20495;-91
2023/01/29 06:21:28;;;;;;;14.30;6.67;;;;;;;41.22;35.87;100894.16;6115425;23;20425;-91
2023/01/29 06:23:54;;;;;;;16.30;6.50;;;;;;;41.37;36.22;100908.38;6124280;23;20885;-91
2023/01/29 06:26:20;;;;;;;17.33;6.60;;;;;;;41.33;36.35;100910.97;6099925;23;20154;-91
2023/01/29 06:29:04;;;;;;;12.33;7.80;;;;;;;41.25;35.75;100914.47;6125538;23;20382;-91
2023/01/29 06:32:13;;;;;;;12.53;7.23;;;;;;;41.37;36.29;100927.41;6139143;23;20394;-96
2023/01/29 06:34:44;;;;;;;11.63;6.80;;;;;;;41.33;36.11;100933.53;6135594;23;20382;-93
2023/01/29 06:44:34;;;;;;;8.87;5.70;;;;;;;41.42;35.36;100957.19;6141860;23;20468;-96
2023/01/29 06:50:49;;;;;;;13.93;6.53;;;;;;;41.51;35.18;100968.84;6141536;23;20369;-91
2023/01/29 06:54:13;;;;;;;17.10;7.20;;;;;;;41.43;35.91;100959.56;6132016;23;20429;-96
2023/01/29 06:57:42;;;;;;;20.53;8.47;;;;;;;41.67;35.16;100980.75;6087749;23;20521;-92
2023/01/29 07:14:56;;;;;;;17.53;7.40;;;;;;;41.53;35.25;101021.84;6130666;23;20953;-94
2023/01/29 07:17:22;;;;;;;15.30;7.80;;;;;;;41.54;35.36;101014.47;6099783;23;20464;-92
2023/01/29 07:20:10;;;;;;;12.53;6.80;;;;;;;41.52;35.33;101030.34;6100964;23;20492;-88
2023/01/29 07:23:13;;;;;;;13.43;8.93;;;;;;;41.63;35.28;101041.69;6135305;23;20393;-94
2023/01/29 07:25:45;;;;;;;12.77;7.63;;;;;;;41.55;35.63;101035.13;6108468;23;20850;-92
2023/01/29 07:31:35;;;;;;;18.60;6.97;;;;;;;41.51;35.45;101048.59;6138707;23;20357;-93
2023/01/29 07:37:49;;;;;;;10.97;6.57;;;;;;;41.57;35.54;101047.31;6134109;23;20357;-94
2023/01/29 07:47:21;;;;;;;14.10;8.77;;;;;;;41.68;35.11;101072.25;6141001;23;20369;-89
2023/01/29 07:49:50;;;;;;;19.47;6.53;;;;;;;41.80;34.83;101075.06;6099532;23;20418;-92
2023/01/29 07:52:18;;;;;;;15.13;7.17;;;;;;;41.81;35.01;101075.91;6099914;23;20402;-92
2023/01/29 07:54:44;;;;;;;16.37;9.40;;;;;;;41.82;35.16;101072.84;6099281;23;20469;-92
2023/01/29 07:57:10;;;;;;;12.63;6.67;;;;;;;41.78;34.83;101076.53;6123986;23;20477;-93
2023/01/29 08:00:19;;;;;;;17.63;8.97;;;;;;;41.98;34.68;101085.88;6099717;23;20469;-88
2023/01/29 08:06:28;;;;;;;9.00;6.10;;;;;;;41.93;34.56;101091.53;6160111;23;20456;-88
2023/01/29 08:15:32;;;;;;;14.40;7.40;;;;;;;41.88;34.97;101080.84;6051943;23;20888;-89
2023/01/29 08:18:00;;;;;;;18.77;7.03;;;;;;;41.83;34.82;101087.25;6130726;23;20428;-91
2023/01/29 08:20:55;;;;;;;15.50;6.60;;;;;;;41.96;34.69;101093.59;6106970;23;20389;-90
2023/01/29 08:23:21;;;;;;;15.40;8.33;;;;;;;41.99;34.44;101092.94;6129552;23;20475;-90
2023/01/29 08:25:47;;;;;;;15.83;7.27;;;;;;;41.92;35.02;101089.94;6130833;23;20865;-84
2023/01/29 08:28:13;;;;;;;16.23;7.97;;;;;;;42.05;34.88;101099.78;6130134;23;20392;-86
2023/01/29 08:30:38;;;;;;;11.57;6.53;;;;;;;42.02;34.82;101098.53;6130200;23;20491;-85
2023/01/29 08:33:04;;;;;;;12.40;6.97;;;;;;;42.07;34.68;101100.28;6130426;23;20381;-89
2023/01/29 08:35:31;;;;;;;13.17;6.50;;;;;;;42.08;34.60;101107.31;6130026;23;20443;-88
2023/01/29 08:37:59;;;;;;;10.53;7.33;;;;;;;42.10;34.52;101105.06;6129629;23;20492;-84
2023/01/29 08:40:28;;;;;;;13.70;8.03;;;;;;;42.04;34.76;101099.00;6129884;23;20742;-83
2023/01/29 08:43:02;;;;;;;11.70;6.40;;;;;;;42.14;34.73;101103.28;6128528;23;20501;-84
2023/01/29 08:45:28;;;;;;;13.10;7.47;;;;;;;42.23;34.77;101108.69;6129868;23;20464;-89
2023/01/29 08:47:54;;;;;;;8.60;5.60;;;;;;;42.26;34.83;101110.78;6129512;23;20389;-85
2023/01/29 08:50:21;;;;;;;12.60;6.20;;;;;;;42.25;34.57;101117.38;6128688;23;20456;-85
2023/01/29 08:53:31;;;;;;;10.07;5.57;;;;;;;42.17;34.58;101113.53;6128887;23;20779;-93
2023/01/29 08:56:03;;;;;;;11.80;5.87;;;;;;;42.10;34.69;101114.03;6127550;23;20389;-94
2023/01/29 08:58:40;;;;;;;12.83;6.80;;;;;;;42.16;34.54;101111.13;6130725;23;20425;-92
2023/01/29 09:01:14;;;;;;;17.93;8.40;;;;;;;42.23;34.99;101119.59;6140639;23;20409;-87
2023/01/29 09:19:11;;;;;;;;;;;;;;;;;;;;;
2023/01/29 09:28:35;;;;;;;10.30;5.70;;;;;;;42.18;35.04;101109.72;5711405;24;20430;-94
2023/01/29 09:31:16;;;;;;;10.60;5.53;;;;;;;42.33;34.84;101105.59;5813230;24;20617;-92
2023/01/29 09:33:42;;;;;;;11.60;5.90;;;;;;;42.31;34.87;101108.66;5975659;23;20416;-85
2023/01/29 09:36:08;;;;;;;11.57;6.73;;;;;;;42.24;34.71;101102.94;6066703;23;20863;-89
2023/01/29 09:38:34;;;;;;;13.40;6.30;;;;;;;42.21;34.64;101108.25;6100762;23;20426;-88
2023/01/29 09:41:23;;;;;;;8.97;6.10;;;;;;;42.13;35.23;101101.69;6100076;23;20756;-84
2023/01/29 09:43:54;;;;;;;9.30;5.47;;;;;;;42.31;34.79;101105.13;6100077;23;20240;-90
2023/01/29 09:46:46;;;;;;;13.70;6.30;;;;;;;42.29;34.62;101105.44;6124256;23;20397;-90
2023/01/29 09:49:30;;;;;;;12.33;6.70;;;;;;;42.31;34.84;101102.41;6096313;23;21259;-90
2023/01/29 09:52:14;;;;;;;14.27;6.40;;;;;;;42.23;34.87;101112.22;6124586;23;21000;-86
2023/01/29 09:54:59;;;;;;;9.13;5.20;;;;;;;42.21;34.91;101105.50;6124979;23;20390;-87
2023/01/29 09:57:40;;;;;;;18.87;6.73;;;;;;;42.31;35.05;101099.69;6099459;23;20397;-82
2023/01/29 10:00:13;;;;;;;11.73;8.17;;;;;;;42.42;34.85;101095.44;6124379;23;20473;-87
2023/01/29 10:03:08;;;;;;;11.43;8.17;;;;;;;42.11;35.39;101093.03;6126224;23;20409;-84
2023/01/29 10:06:02;;;;;;;13.43;6.77;;;;;;;42.18;35.19;101090.63;6129654;23;20449;-90
2023/01/29 10:08:32;;;;;;;14.03;6.57;;;;;;;42.39;34.67;101085.97;6154792;23;20464;-89
2023/01/29 10:11:19;;;;;;;11.80;6.20;;;;;;;42.42;34.54;101080.97;6129252;23;20747;-90
2023/01/29 10:14:08;;;;;;;18.90;7.07;;;;;;;42.49;34.71;101086.72;6129605;23;20393;-91
2023/01/29 10:16:49;;;;;;;13.57;7.87;;;;;;;42.49;34.68;101094.91;6138825;23;20390;-91
2023/01/29 10:19:56;;;;;;;9.57;5.30;;;;;;;42.22;34.77;101088.03;6127805;23;20436;-92
2023/01/29 10:22:45;;;;;;;8.60;4.40;;;;;;;42.44;34.71;101097.81;6128916;23;20412;-90
2023/01/29 10:25:15;;;;;;;17.70;5.17;;;;;;;42.52;34.28;101091.50;6129574;23;20389;-90
2023/01/29 10:27:51;;;;;;;7.40;4.80;;;;;;;42.35;34.75;101082.31;6129438;23;20408;-90
2023/01/29 10:30:39;;;;;;;10.27;5.80;;;;;;;42.55;34.76;101085.38;6129630;23;20391;-90
2023/01/29 10:33:16;;;;;;;7.73;5.57;;;;;;;42.61;34.42;101084.88;6129422;23;20393;-90
2023/01/29 10:35:48;;;;;;;7.53;4.70;;;;;;;42.64;34.51;101075.22;6128307;23;20420;-91
2023/01/29 10:38:32;;;;;;;12.30;7.57;;;;;;;42.72;34.29;101079.78;6155623;23;20436;-91
2023/01/29 10:41:10;;;;;;;8.90;5.30;;;;;;;42.64;34.70;101058.84;6129633;23;20440;-91
2023/01/29 10:43:40;;;;;;;11.03;5.60;;;;;;;42.67;34.26;101068.31;6129493;23;20416;-91
2023/01/29 10:46:25;;;;;;;11.67;5.30;;;;;;;42.66;34.31;101064.75;6129535;23;20480;-92
2023/01/29 10:49:24;;;;;;;10.10;4.73;;;;;;;42.78;34.08;101067.53;6154688;23;20385;-92
2023/01/29 10:52:26;;;;;;;10.83;4.73;;;;;;;42.82;33.96;101057.56;6154348;23;20385;-92
2023/01/29 10:55:42;;;;;;;8.63;4.97;;;;;;;42.80;33.99;101061.78;6153962;23;20375;-89
2023/01/29 10:58:57;;;;;;;9.07;6.43;;;;;;;42.79;33.61;101055.53;6154387;23;20436;-92
2023/01/29 11:01:25;;;;;;;12.47;5.03;;;;;;;42.83;33.76;101056.41;6154232;23;20890;-91
2023/01/29 11:04:02;;;;;;;12.37;6.20;;;;;;;42.78;34.08;101047.66;6105347;23;20483;-92
2023/01/29 11:06:42;;;;;;;9.87;5.73;;;;;;;42.63;34.00;101043.63;6105708;23;20532;-91
2023/01/29 11:09:54;;;;;;;9.77;5.87;;;;;;;42.61;33.69;101043.97;6099999;23;20477;-93
2023/01/29 11:12:30;;;;;;;13.30;4.80;;;;;;;42.50;34.26;101040.03;6080823;23;20913;-93
2023/01/29 11:15:22;;;;;;;12.43;6.50;;;;;;;42.70;33.81;101037.63;6096532;23;20386;-93
2023/01/29 11:18:09;;;;;;;10.13;5.67;;;;;;;42.81;33.52;101045.06;6099909;23;20437;-92
2023/01/29 11:20:37;;;;;;;13.50;4.83;;;;;;;42.80;33.63;101032.56;6100076;23;20409;-90
2023/01/29 11:23:34;;;;;;;8.93;4.60;;;;;;;42.86;33.72;101031.22;6123291;23;20382;-91
2023/01/29 11:26:05;;;;;;;7.17;4.73;;;;;;;42.86;34.06;101024.94;6096321;23;20460;-91
2023/01/29 11:28:48;;;;;;;9.30;5.00;;;;;;;42.86;34.17;101020.28;6095022;23;20374;-91
2023/01/29 11:31:31;;;;;;;9.83;5.23;;;;;;;42.99;33.98;101012.97;6096512;23;20718;-92
2023/01/29 11:34:18;;;;;;;13.40;5.50;;;;;;;43.12;33.73;101013.78;6097891;23;20989;-90
2023/01/29 11:36:47;;;;;;;10.43;5.40;;;;;;;42.92;33.92;101013.47;6076451;23;20390;-86
2023/01/29 11:39:29;;;;;;;10.87;5.30;;;;;;;43.04;33.83;101004.56;6121858;23;20430;-88
2023/01/29 11:42:03;;;;;;;9.10;4.80;;;;;;;43.13;33.68;100991.59;6095933;23;20385;-81
2023/01/29 11:44:35;;;;;;;14.60;6.23;;;;;;;43.12;33.59;101000.13;6098587;23;20390;-83
2023/01/29 11:47:11;;;;;;;12.40;6.13;;;;;;;42.95;33.99;101000.28;6096829;23;20385;-81
2023/01/29 11:49:40;;;;;;;12.87;5.60;;;;;;;43.06;34.18;100987.84;6102399;23;20390;-91
2023/01/29 11:52:10;;;;;;;13.43;5.30;;;;;;;42.94;33.99;100974.94;6125484;23;20874;-89
2023/01/29 11:55:12;;;;;;;10.07;4.57;;;;;;;43.01;33.75;100958.81;6125974;23;20389;-93
2023/01/29 11:57:50;;;;;;;17.33;6.27;;;;;;;42.82;33.94;100962.06;6125904;23;20394;-88
2023/01/29 12:00:30;;;;;;;10.23;5.03;;;;;;;42.89;33.83;100947.84;6083421;23;20949;-84
2023/01/29 12:03:21;;;;;;;13.90;5.50;;;;;;;42.91;33.18;100951.84;6126780;23;20422;-90
2023/01/29 12:06:22;;;;;;;13.63;5.43;;;;;;;43.09;33.41;100946.19;6101007;23;20444;-89
2023/01/29 12:09:28;;;;;;;15.23;6.23;;;;;;;43.05;33.39;100931.66;6129484;23;20420;-89
2023/01/29 12:12:15;;;;;;;11.37;6.07;;;;;;;43.05;33.22;100926.19;6095115;23;20424;-89
2023/01/29 12:15:10;;;;;;;13.43;5.83;;;;;;;43.13;33.69;100928.00;6129316;23;20385;-92
2023/01/29 12:17:43;;;;;;;12.10;7.00;;;;;;;43.26;33.03;100918.69;6101199;23;20402;-93
2023/01/29 12:20:16;;;;;;;12.37;6.47;;;;;;;43.37;32.67;100919.00;6103054;23;20462;-93
2023/01/29 12:23:20;;;;;;;10.70;5.50;;;;;;;43.38;32.68;100906.94;6119561;23;20393;-90
2023/01/29 12:26:29;;;;;;;13.20;8.10;;;;;;;43.29;32.31;100889.91;6097782;23;20783;-90
2023/01/29 12:29:14;;;;;;;10.00;5.53;;;;;;;43.22;32.53;100897.84;6089291;23;20390;-91
2023/01/29 12:31:55;;;;;;;10.80;6.87;;;;;;;43.16;32.84;100889.13;6101322;23;20394;-92
2023/01/29 12:34:44;;;;;;;12.93;6.80;;;;;;;43.25;32.59;100887.06;6100282;23;20762;-83
2023/01/29 12:37:13;;;;;;;13.70;5.83;;;;;;;43.23;32.83;100872.16;6100505;23;20464;-82
2023/01/29 12:40:25;;;;;;;12.90;7.70;;;;;;;43.25;32.93;100873.41;6097842;23;20787;-81
2023/01/29 12:43:44;;;;;;;11.67;6.17;;;;;;;43.33;32.83;100861.53;6098623;23;20917;-87
2023/01/29 12:46:42;;;;;;;12.40;5.73;;;;;;;43.24;32.99;100857.38;6098134;23;20390;-86
2023/01/29 12:49:22;;;;;;;17.60;7.60;;;;;;;43.22;33.03;100857.72;6100267;23;20397;-87
2023/01/29 12:52:21;;;;;;;12.80;6.47;;;;;;;43.13;33.25;100843.38;6101186;23;20386;-93
2023/01/29 12:55:15;;;;;;;19.27;6.73;;;;;;;43.01;33.23;100843.41;6125828;23;20396;-87
2023/01/29 13:12:11;;;;;;;13.60;5.67;;;;;;;43.28;33.06;100811.84;5973243;23;20399;-85
2023/01/29 13:14:58;;;;;;;12.33;6.50;;;;;;;43.13;33.24;100799.72;6091643;23;20413;-84
2023/01/29 13:17:42;;;;;;;18.60;6.83;;;;;;;43.22;33.33;100797.66;6098067;23;20418;-83
2023/01/29 13:20:17;;;;;;;14.63;5.90;;;;;;;43.09;33.65;100779.69;6099253;23;20468;-85
2023/01/29 13:22:45;;;;;;;16.53;6.70;;;;;;;43.10;33.68;100782.09;6126277;23;20365;-84
2023/01/29 13:25:17;;;;;;;9.40;4.63;;;;;;;43.14;33.41;100774.00;6100251;23;20393;-84
2023/01/29 13:27:46;;;;;;;17.13;5.80;;;;;;;43.34;33.24;100772.22;6126039;23;20438;-84
2023/01/29 13:30:31;;;;;;;12.93;6.53;;;;;;;43.31;33.58;100767.47;6100162;23;20759;-81
2023/01/29 13:33:09;;;;;;;10.10;6.63;;;;;;;43.45;33.39;100755.03;6126185;23;20366;-82
2023/01/29 13:35:49;;;;;;;17.27;6.77;;;;;;;43.50;33.23;100758.69;6078291;23;20798;-85
2023/01/29 13:38:26;;;;;;;13.20;6.30;;;;;;;43.58;32.96;100744.84;6094691;23;20429;-82
2023/01/29 13:40:59;;;;;;;20.40;7.30;;;;;;;43.65;32.56;100747.81;6124542;23;20390;-81
2023/01/29 13:43:26;;;;;;;9.03;5.90;;;;;;;43.69;32.55;100737.75;6098546;23;20386;-80
2023/01/29 13:45:53;;;;;;;11.60;5.13;;;;;;;43.83;32.09;100733.81;6124166;23;20421;-81
2023/01/29 13:48:27;;;;;;;14.37;6.83;;;;;;;43.82;32.09;100724.03;6099819;23;20449;-80
2023/01/29 13:50:55;;;;;;;11.53;6.83;;;;;;;43.79;32.31;100725.56;6099776;23;20410;-83
2023/01/29 13:53:28;;;;;;;12.93;6.43;;;;;;;43.76;31.95;100717.22;6099684;23;20382;-82
2023/01/29 13:55:54;;;;;;;13.93;5.40;;;;;;;43.74;31.84;100714.84;6124261;23;20451;-83
2023/01/29 13:58:32;;;;;;;11.30;5.77;;;;;;;43.77;32.17;100718.81;6099469;23;20468;-83
2023/01/29 14:01:00;;;;;;;9.80;6.23;;;;;;;43.64;32.71;100716.13;6099858;23;20386;-83
2023/01/29 14:03:25;;;;;;;9.63;5.40;;;;;;;43.94;31.55;100710.31;6099873;23;20389;-83
2023/01/29 14:06:01;;;;;;;7.23;5.03;;;;;;;44.04;31.93;100712.53;6101835;23;20473;-83
2023/01/29 14:08:43;;;;;;;12.30;6.30;;;;;;;44.22;31.19;100702.84;6155288;23;20133;-84
2023/01/29 14:11:13;;;;;;;14.03;6.87;;;;;;;44.52;31.19;100693.38;6155305;23;20411;-84
2023/01/29 14:13:44;;;;;;;11.57;6.70;;;;;;;44.66;31.23;100705.44;6128924;23;20427;-84
2023/01/29 14:16:12;;;;;;;10.50;4.93;;;;;;;44.63;30.91;100708.91;6129069;23;20866;-82
2023/01/29 14:18:48;;;;;;;13.73;6.37;;;;;;;44.65;30.60;100695.66;6155005;23;20897;-82
2023/01/29 14:21:23;;;;;;;14.47;6.13;;;;;;;44.74;30.74;100706.38;6155054;23;20802;-82
2023/01/29 14:23:56;;;;;;;12.50;6.00;;;;;;;44.60;30.50;100706.06;6129075;23;20393;-82
2023/01/29 14:26:44;;;;;;;9.70;5.27;;;;;;;44.71;30.62;100699.69;6128842;23;20452;-82
2023/01/29 14:29:15;;;;;;;10.30;5.10;;;;;;;44.78;30.88;100701.78;6129049;23;20468;-83